Terminal Aerodrome Forecast
Issued by NWS

Home | Current Version | Previous Version | Text Only | Print | Product List | Glossary On
Versions: 1 2 3 4 5 6 7 8 9 10 11 12 13 14 15 16
000
FTUS43 KOAX 270737 AAA
TAFCDR
TAF AMD
KCDR 270737Z 2708/2806 15004KT P6SM BKN050
     FM271000 17003KT P6SM SCT025 OVC050
     FM271300 28009KT P6SM OVC100
     FM271500 31017G27KT P6SM BKN200
     FM280100 31006KT P6SM SCT250=

USA.gov is the U.S. government's official web portal to all federal, state and local government web resources and services.